Terminal Aerodrome Forecast
Issued by NWS

Home | Current Version | Previous Version | Text Only | Print | Product List | Glossary On
Versions: 1 2 3 4 5 6 7 8 9 10 11 12 13 14 15 16 17
000
FTPA31 PHFO 230523
TAFSTU
TAF
NSTU 230523Z 2306/2406 13014G20KT P6SM VCSH SCT015 BKN035 OVC080
      TEMPO 2312/2316 2SM +SHRA BKN015 OVC030
     FM231600 09012G18KT P6SM VCSH SCT010 BKN035 BKN080=

USA.gov is the U.S. government's official web portal to all federal, state and local government web resources and services.